Terminal Aerodrome Forecast
Issued by NWS Cleveland, OH

Home | Current Version | Previous Version | Text Only | Print | Product List | Glossary On
Versions: 1 2 3 4 5 6 7 8 9 10 11 12 13 14 15 16 17 18 19
698
FTUS41 KCLE 301736
TAFYNG
TAF
KYNG 301736Z 3018/3118 10006KT P6SM BKN035
      TEMPO 3018/3020 BKN025
     FM302000 12004KT P6SM OVC025
      TEMPO 3020/3024 3SM TSRA OVC015CB
     FM310000 15004KT P6SM BKN070
     FM311000 VRB03KT 4SM BR OVC010=

USA.gov is the U.S. government's official web portal to all federal, state and local government web resources and services.